Time;durP1;ratioP1;P1;durP2;ratioP2;P2;SDS_P1;SDS_P2;PMS_P1;PMS_P2;Temp;Humidity;BMP_temperature;BMP_pressure;BME280_temperature;BME280_humidity;BME280_pressure;Samples;Min_cycle;Max_cycle;Signal;HPM_P1;HPM_P2
2022/02/21 00:01:58;;;;;;;23.20;16.80;;;;;;;;;;5094104;28;20028;-69
2022/02/21 00:04:24;;;;;;;24.02;17.40;;;;;;;;;;5094798;28;20032;-74
2022/02/21 00:06:50;;;;;;;20.00;15.90;;;;;;;;;;5094349;28;20071;-74
2022/02/21 00:09:16;;;;;;;22.63;16.77;;;;;;;;;;5094209;28;20123;-69
2022/02/21 00:11:42;;;;;;;21.17;16.10;;;;;;;;;;5094109;28;20024;-69
2022/02/21 00:14:09;;;;;;;18.83;15.07;;;;;;;;;;5094179;28;20115;-69
2022/02/21 00:16:35;;;;;;;22.23;15.50;;;;;;;;;;5094123;28;20086;-69
2022/02/21 00:19:01;;;;;;;22.30;15.95;;;;;;;;;;5093833;28;20032;-69
2022/02/21 00:21:29;;;;;;;18.30;14.82;;;;;;;;;;5094234;28;20032;-70
2022/02/21 00:23:56;;;;;;;22.08;15.20;;;;;;;;;;5093906;28;20024;-69
2022/02/21 00:26:22;;;;;;;16.92;13.73;;;;;;;;;;5094041;28;20036;-69
2022/02/21 00:28:48;;;;;;;18.77;13.95;;;;;;;;;;5093645;28;20435;-70
2022/02/21 00:31:14;;;;;;;20.20;14.75;;;;;;;;;;5093824;28;20384;-69
2022/02/21 00:33:40;;;;;;;19.23;13.95;;;;;;;;;;5093758;28;20024;-69
2022/02/21 00:36:07;;;;;;;18.35;13.50;;;;;;;;;;5093748;28;20542;-69
2022/02/21 00:38:33;;;;;;;17.70;13.02;;;;;;;;;;5093606;28;20396;-69
2022/02/21 00:40:59;;;;;;;15.75;13.25;;;;;;;;;;5093549;28;20524;-69
2022/02/21 00:43:25;;;;;;;17.88;13.70;;;;;;;;;;5093792;28;20047;-69
2022/02/21 00:45:51;;;;;;;18.60;13.73;;;;;;;;;;5093596;28;20476;-69
2022/02/21 00:48:18;;;;;;;16.52;13.23;;;;;;;;;;5093338;28;20047;-70
2022/02/21 00:50:44;;;;;;;14.95;12.32;;;;;;;;;;5093845;28;20043;-70
2022/02/21 00:53:10;;;;;;;18.05;12.43;;;;;;;;;;5093492;28;20090;-69
2022/02/21 00:55:36;;;;;;;16.27;12.13;;;;;;;;;;5093054;28;20082;-69
2022/02/21 00:58:05;;;;;;;15.55;12.23;;;;;;;;;;5093402;28;20427;-74
2022/02/21 01:00:32;;;;;;;14.47;12.07;;;;;;;;;;5093033;28;20058;-74
2022/02/21 01:02:58;;;;;;;13.82;11.45;;;;;;;;;;5093420;28;20036;-69
2022/02/21 01:05:24;;;;;;;14.38;12.25;;;;;;;;;;5093508;28;20508;-75
2022/02/21 01:07:50;;;;;;;12.70;10.65;;;;;;;;;;5092969;28;20079;-69
2022/02/21 01:10:17;;;;;;;13.85;10.32;;;;;;;;;;5093418;28;20034;-69
2022/02/21 01:12:43;;;;;;;13.55;9.85;;;;;;;;;;5089858;28;20055;-71
2022/02/21 01:15:10;;;;;;;13.45;9.40;;;;;;;;;;5090157;28;20040;-74
2022/02/21 01:17:37;;;;;;;11.05;9.23;;;;;;;;;;5091731;28;20042;-76
2022/02/21 01:20:06;;;;;;;12.50;9.55;;;;;;;;;;5093278;28;20409;-69
2022/02/21 01:22:32;;;;;;;12.10;9.88;;;;;;;;;;5093217;28;20048;-69
2022/02/21 01:24:58;;;;;;;14.40;9.80;;;;;;;;;;5093097;28;20039;-69
2022/02/21 01:27:24;;;;;;;13.40;10.13;;;;;;;;;;5092887;28;20070;-69
2022/02/21 01:29:50;;;;;;;12.57;9.52;;;;;;;;;;5093019;28;20036;-69
2022/02/21 01:32:16;;;;;;;12.32;10.02;;;;;;;;;;5092932;28;20028;-69
2022/02/21 01:34:42;;;;;;;10.65;9.40;;;;;;;;;;5092746;28;20035;-76
2022/02/21 01:37:09;;;;;;;13.57;10.48;;;;;;;;;;5092918;28;20039;-75
2022/02/21 01:39:35;;;;;;;12.88;10.05;;;;;;;;;;5092949;28;20127;-69
2022/02/21 01:42:01;;;;;;;16.45;12.80;;;;;;;;;;5092996;28;20510;-69
2022/02/21 01:44:41;;;;;;;15.23;12.55;;;;;;;;;;5092949;28;20027;-69
2022/02/21 01:47:09;;;;;;;18.52;13.75;;;;;;;;;;5092563;28;20029;-69
2022/02/21 01:49:35;;;;;;;18.70;14.98;;;;;;;;;;5092880;28;20044;-69
2022/02/21 01:52:03;;;;;;;20.40;15.48;;;;;;;;;;5092755;28;20033;-69
2022/02/21 01:54:30;;;;;;;20.17;15.82;;;;;;;;;;5092685;28;20123;-69
2022/02/21 01:56:56;;;;;;;20.13;17.23;;;;;;;;;;5092704;28;20029;-69
2022/02/21 01:59:24;;;;;;;30.08;16.90;;;;;;;;;;5089926;28;20032;-69
2022/02/21 02:01:50;;;;;;;22.10;16.60;;;;;;;;;;5090402;28;20028;-69
2022/02/21 02:04:16;;;;;;;21.33;16.33;;;;;;;;;;5090566;28;20103;-69
2022/02/21 02:06:42;;;;;;;19.67;16.00;;;;;;;;;;5093017;28;20025;-69
2022/02/21 02:09:09;;;;;;;24.00;17.05;;;;;;;;;;5096777;28;20040;-69
2022/02/21 02:11:36;;;;;;;18.73;15.65;;;;;;;;;;5096504;28;20039;-69
2022/02/21 02:14:03;;;;;;;21.73;15.70;;;;;;;;;;5096281;28;20036;-69
2022/02/21 02:16:29;;;;;;;17.40;14.20;;;;;;;;;;5096464;28;20115;-69
2022/02/21 02:18:55;;;;;;;19.83;15.00;;;;;;;;;;5096343;28;20043;-70
2022/02/21 02:21:22;;;;;;;18.52;15.27;;;;;;;;;;5096169;28;20062;-69
2022/02/21 02:23:49;;;;;;;16.33;14.48;;;;;;;;;;5096633;28;20431;-69
2022/02/21 02:26:17;;;;;;;19.65;15.00;;;;;;;;;;5096429;28;20354;-69
2022/02/21 02:28:43;;;;;;;20.07;15.73;;;;;;;;;;5095462;28;20522;-69
2022/02/21 02:31:09;;;;;;;19.53;14.77;;;;;;;;;;5095944;28;20059;-69
2022/02/21 02:33:37;;;;;;;19.58;14.63;;;;;;;;;;5096026;28;20480;-74
2022/02/21 02:36:03;;;;;;;19.73;15.23;;;;;;;;;;5095955;28;20043;-70
2022/02/21 02:38:29;;;;;;;19.53;15.40;;;;;;;;;;5095837;28;20403;-69
2022/02/21 02:40:56;;;;;;;19.65;15.35;;;;;;;;;;5095736;28;20131;-69
2022/02/21 02:43:22;;;;;;;15.63;13.05;;;;;;;;;;5095623;28;20115;-69
2022/02/21 02:45:48;;;;;;;18.77;15.48;;;;;;;;;;5095779;28;20040;-69
2022/02/21 02:48:14;;;;;;;19.67;15.23;;;;;;;;;;5095749;28;20123;-69
2022/02/21 02:50:40;;;;;;;22.10;15.70;;;;;;;;;;5095428;28;20060;-69
2022/02/21 02:53:06;;;;;;;19.00;15.40;;;;;;;;;;5095512;28;20036;-69
2022/02/21 02:55:32;;;;;;;21.20;15.70;;;;;;;;;;5095712;28;20036;-69
2022/02/21 02:57:58;;;;;;;20.30;15.55;;;;;;;;;;5095396;28;20028;-69
2022/02/21 03:00:24;;;;;;;20.43;15.90;;;;;;;;;;5095475;28;20186;-69
2022/02/21 03:02:50;;;;;;;18.17;14.60;;;;;;;;;;5095618;28;20028;-69
2022/02/21 03:05:16;;;;;;;20.17;16.35;;;;;;;;;;5095578;28;20400;-70
2022/02/21 03:07:42;;;;;;;20.70;15.45;;;;;;;;;;5095517;28;20422;-69
2022/02/21 03:10:08;;;;;;;21.90;15.25;;;;;;;;;;5095361;28;20055;-69
2022/02/21 03:12:34;;;;;;;18.05;15.80;;;;;;;;;;5095349;28;20036;-69
2022/02/21 03:15:00;;;;;;;20.43;15.73;;;;;;;;;;5095433;28;20032;-69
2022/02/21 03:17:26;;;;;;;20.88;15.77;;;;;;;;;;5094740;28;20040;-70
2022/02/21 03:19:52;;;;;;;19.35;15.63;;;;;;;;;;5095231;28;20111;-69
2022/02/21 03:22:18;;;;;;;21.95;14.88;;;;;;;;;;5095220;28;20491;-69
2022/02/21 03:24:44;;;;;;;20.43;16.23;;;;;;;;;;5095213;28;20473;-69
2022/02/21 03:27:10;;;;;;;21.00;15.50;;;;;;;;;;5095047;28;20449;-69
2022/02/21 03:29:37;;;;;;;24.33;17.30;;;;;;;;;;5094947;28;20044;-69
2022/02/21 03:32:03;;;;;;;24.83;17.20;;;;;;;;;;5094824;28;20400;-69
2022/02/21 03:34:29;;;;;;;25.08;17.23;;;;;;;;;;5094979;28;20044;-69
2022/02/21 03:36:55;;;;;;;23.35;17.20;;;;;;;;;;5094660;28;20032;-69
2022/02/21 03:39:21;;;;;;;23.17;16.23;;;;;;;;;;5094631;28;20052;-69
2022/02/21 03:41:47;;;;;;;18.90;14.47;;;;;;;;;;5094692;28;20028;-69
2022/02/21 03:44:13;;;;;;;22.87;15.73;;;;;;;;;;5094435;28;20495;-69
2022/02/21 03:46:41;;;;;;;18.17;14.33;;;;;;;;;;5094361;28;20032;-70
2022/02/21 03:49:07;;;;;;;20.90;14.37;;;;;;;;;;5094498;28;20052;-69
2022/02/21 03:51:33;;;;;;;19.65;14.70;;;;;;;;;;5094166;28;20028;-69
2022/02/21 03:54:00;;;;;;;21.10;13.60;;;;;;;;;;5094840;28;20032;-68
2022/02/21 03:56:26;;;;;;;17.87;14.47;;;;;;;;;;5094557;28;20032;-74
2022/02/21 03:58:52;;;;;;;19.75;14.88;;;;;;;;;;5094527;28;20090;-70
2022/02/21 04:01:18;;;;;;;20.77;14.53;;;;;;;;;;5094241;28;20043;-74
2022/02/21 04:03:44;;;;;;;20.00;13.50;;;;;;;;;;5094238;28;20040;-74
2022/02/21 04:06:10;;;;;;;20.20;13.50;;;;;;;;;;5094354;28;20036;-69
2022/02/21 04:08:36;;;;;;;17.15;12.55;;;;;;;;;;5094266;28;20510;-69
2022/02/21 04:11:02;;;;;;;17.00;11.70;;;;;;;;;;5094437;28;20031;-69
2022/02/21 04:13:28;;;;;;;15.73;11.70;;;;;;;;;;5094595;28;20075;-69
2022/02/21 04:15:54;;;;;;;14.93;12.43;;;;;;;;;;5093980;28;20028;-69
2022/02/21 04:18:20;;;;;;;18.35;13.57;;;;;;;;;;5093995;28;20032;-69
2022/02/21 04:20:46;;;;;;;15.80;12.50;;;;;;;;;;5094136;28;20119;-69
2022/02/21 04:23:12;;;;;;;15.50;13.35;;;;;;;;;;5093953;28;20473;-69
2022/02/21 04:25:38;;;;;;;21.45;13.77;;;;;;;;;;5093930;28;20032;-70
2022/02/21 04:28:04;;;;;;;17.83;14.15;;;;;;;;;;5093843;28;20439;-74
2022/02/21 04:30:31;;;;;;;20.92;14.50;;;;;;;;;;5093469;28;20039;-69
2022/02/21 04:32:57;;;;;;;17.90;13.90;;;;;;;;;;5093606;28;20036;-74
2022/02/21 04:35:24;;;;;;;17.40;14.27;;;;;;;;;;5093735;28;20032;-69
2022/02/21 04:37:51;;;;;;;22.23;14.27;;;;;;;;;;5093626;28;20040;-68
2022/02/21 04:40:18;;;;;;;17.83;14.10;;;;;;;;;;5093778;28;20135;-69
2022/02/21 04:42:45;;;;;;;18.87;14.10;;;;;;;;;;5093687;28;20159;-69
2022/02/21 04:45:11;;;;;;;18.17;14.15;;;;;;;;;;5093659;28;20032;-69
2022/02/21 04:47:37;;;;;;;17.47;14.73;;;;;;;;;;5093422;28;20044;-69
2022/02/21 04:50:06;;;;;;;19.10;14.35;;;;;;;;;;5093183;28;20044;-69
2022/02/21 04:52:32;;;;;;;18.08;14.25;;;;;;;;;;5093222;28;20496;-69
2022/02/21 04:54:58;;;;;;;18.38;14.70;;;;;;;;;;5093290;28;20121;-69
2022/02/21 04:57:24;;;;;;;20.60;15.17;;;;;;;;;;5093516;28;20044;-70
2022/02/21 04:59:50;;;;;;;19.60;13.93;;;;;;;;;;5093239;28;20036;-70
2022/02/21 05:02:16;;;;;;;17.45;14.52;;;;;;;;;;5093450;28;20032;-70
2022/02/21 05:04:42;;;;;;;18.00;14.98;;;;;;;;;;5093100;28;20061;-70
2022/02/21 05:07:08;;;;;;;17.67;15.00;;;;;;;;;;5093346;28;20024;-69
2022/02/21 05:09:34;;;;;;;20.17;14.67;;;;;;;;;;5093529;28;20079;-69
2022/02/21 05:12:00;;;;;;;18.33;14.43;;;;;;;;;;5093360;28;20032;-69
2022/02/21 05:14:26;;;;;;;19.20;14.40;;;;;;;;;;5093279;28;20511;-70
2022/02/21 05:16:53;;;;;;;18.03;14.40;;;;;;;;;;5092957;28;20389;-69
2022/02/21 05:19:19;;;;;;;18.02;13.77;;;;;;;;;;5093336;28;20032;-69
2022/02/21 05:21:45;;;;;;;18.23;14.60;;;;;;;;;;5093206;28;20035;-69
2022/02/21 05:24:11;;;;;;;18.33;14.13;;;;;;;;;;5092947;28;20500;-68
2022/02/21 05:26:37;;;;;;;19.20;13.93;;;;;;;;;;5092962;28;20550;-69
2022/02/21 05:29:03;;;;;;;21.33;14.90;;;;;;;;;;5093062;28;20044;-69
2022/02/21 05:31:29;;;;;;;17.25;13.55;;;;;;;;;;5093341;28;20059;-69
2022/02/21 05:33:56;;;;;;;17.20;13.87;;;;;;;;;;5093245;28;20032;-69
2022/02/21 05:36:22;;;;;;;18.07;14.10;;;;;;;;;;5093030;28;20036;-68
2022/02/21 05:38:48;;;;;;;21.33;14.95;;;;;;;;;;5092880;28;20028;-69
2022/02/21 05:41:14;;;;;;;17.97;14.90;;;;;;;;;;5094654;28;20036;-69
2022/02/21 05:43:40;;;;;;;21.25;12.68;;;;;;;;;;5097214;28;20491;-69
2022/02/21 05:46:06;;;;;;;16.80;13.77;;;;;;;;;;5097381;28;20039;-69
2022/02/21 05:48:32;;;;;;;19.88;13.88;;;;;;;;;;5097067;28;20051;-69
2022/02/21 05:50:59;;;;;;;19.27;14.50;;;;;;;;;;5097262;28;20115;-69
2022/02/21 05:53:25;;;;;;;17.20;13.87;;;;;;;;;;5096604;28;20054;-68
2022/02/21 05:55:51;;;;;;;17.13;13.80;;;;;;;;;;5097110;28;20491;-69
2022/02/21 05:58:17;;;;;;;18.02;14.15;;;;;;;;;;5097114;28;20111;-75
2022/02/21 06:00:45;;;;;;;20.55;14.93;;;;;;;;;;5096904;28;20032;-69
2022/02/21 06:03:11;;;;;;;21.35;14.57;;;;;;;;;;5096928;28;20115;-73
2022/02/21 06:05:39;;;;;;;19.27;15.50;;;;;;;;;;5096455;28;20476;-69
2022/02/21 06:08:05;;;;;;;19.63;14.90;;;;;;;;;;5096571;28;20070;-75
2022/02/21 06:10:31;;;;;;;20.08;14.63;;;;;;;;;;5096726;28;20403;-70
2022/02/21 06:12:57;;;;;;;20.30;14.93;;;;;;;;;;5096383;28;20102;-69
2022/02/21 06:15:23;;;;;;;20.07;14.93;;;;;;;;;;5096367;28;20484;-69
2022/02/21 06:17:49;;;;;;;24.13;15.20;;;;;;;;;;5096652;28;20032;-69
2022/02/21 06:20:15;;;;;;;22.48;14.73;;;;;;;;;;5096288;28;20149;-69
2022/02/21 06:22:41;;;;;;;19.90;14.47;;;;;;;;;;5096277;28;20032;-69
2022/02/21 06:25:07;;;;;;;20.30;14.77;;;;;;;;;;5096585;28;20028;-69
2022/02/21 06:27:33;;;;;;;20.23;15.53;;;;;;;;;;5096247;28;20403;-69
2022/02/21 06:29:59;;;;;;;22.25;15.50;;;;;;;;;;5096127;28;20131;-67
2022/02/21 06:32:26;;;;;;;21.35;15.68;;;;;;;;;;5096076;28;20040;-69
2022/02/21 06:34:52;;;;;;;24.90;16.40;;;;;;;;;;5096425;28;20051;-71
2022/02/21 06:37:19;;;;;;;20.47;14.93;;;;;;;;;;5095938;28;20111;-69
2022/02/21 06:39:45;;;;;;;24.83;16.00;;;;;;;;;;5095817;28;20111;-71
2022/02/21 06:42:11;;;;;;;20.43;15.40;;;;;;;;;;5095911;28;20130;-68
2022/02/21 06:44:37;;;;;;;21.33;16.23;;;;;;;;;;5095818;28;20107;-68
2022/02/21 06:47:04;;;;;;;24.83;15.30;;;;;;;;;;5097295;28;20444;-69
2022/02/21 06:49:30;;;;;;;22.23;15.70;;;;;;;;;;5095734;28;20492;-68
2022/02/21 06:51:56;;;;;;;21.23;15.30;;;;;;;;;;5095168;28;20043;-69
2022/02/21 06:54:23;;;;;;;21.92;15.63;;;;;;;;;;5095284;28;20028;-68
2022/02/21 06:56:49;;;;;;;24.20;16.02;;;;;;;;;;5095622;28;20090;-68
2022/02/21 06:59:15;;;;;;;26.40;16.83;;;;;;;;;;5095296;28;20567;-68
2022/02/21 07:01:41;;;;;;;28.67;17.33;;;;;;;;;;5095263;28;20044;-69
2022/02/21 07:04:07;;;;;;;27.20;17.17;;;;;;;;;;5094940;28;20054;-69
2022/02/21 07:06:35;;;;;;;25.20;16.65;;;;;;;;;;5095104;28;20451;-69
2022/02/21 07:09:01;;;;;;;23.13;16.27;;;;;;;;;;5095025;28;20044;-69
2022/02/21 07:11:27;;;;;;;25.92;17.00;;;;;;;;;;5094874;28;20082;-69
2022/02/21 07:13:53;;;;;;;26.30;17.73;;;;;;;;;;5094956;28;20036;-68
2022/02/21 07:16:19;;;;;;;31.97;17.70;;;;;;;;;;5094924;28;20058;-70
2022/02/21 07:18:45;;;;;;;26.20;17.70;;;;;;;;;;5095109;28;20090;-69
2022/02/21 07:21:11;;;;;;;26.77;16.73;;;;;;;;;;5094578;28;20028;-68
2022/02/21 07:23:38;;;;;;;27.23;17.43;;;;;;;;;;5094808;28;20032;-67
2022/02/21 07:26:04;;;;;;;27.55;19.00;;;;;;;;;;5094941;28;20029;-67
2022/02/21 07:28:30;;;;;;;31.10;20.33;;;;;;;;;;5094492;28;20028;-67
2022/02/21 07:30:56;;;;;;;35.67;21.45;;;;;;;;;;5094607;28;20036;-67
2022/02/21 07:33:23;;;;;;;37.97;22.02;;;;;;;;;;5094449;28;20028;-74
2022/02/21 07:35:49;;;;;;;28.70;19.17;;;;;;;;;;5094338;28;20106;-68
2022/02/21 07:38:15;;;;;;;29.37;19.63;;;;;;;;;;5094451;28;20032;-68
2022/02/21 07:40:41;;;;;;;29.73;19.80;;;;;;;;;;5094297;28;20408;-68
2022/02/21 07:43:08;;;;;;;30.90;20.43;;;;;;;;;;5094518;28;20075;-68
2022/02/21 07:45:34;;;;;;;29.50;20.98;;;;;;;;;;5093728;28;20051;-74
2022/02/21 07:48:03;;;;;;;28.33;19.17;;;;;;;;;;5094214;28;20032;-72
2022/02/21 07:50:30;;;;;;;28.17;18.52;;;;;;;;;;5092864;28;20060;-70
2022/02/21 07:52:57;;;;;;;30.13;19.33;;;;;;;;;;5092825;28;20039;-74
2022/02/21 07:55:24;;;;;;;35.13;21.25;;;;;;;;;;5093012;28;20031;-67
2022/02/21 07:57:50;;;;;;;30.13;20.80;;;;;;;;;;5093540;28;20032;-77
2022/02/21 08:00:20;;;;;;;31.80;20.50;;;;;;;;;;5094294;28;20032;-77
2022/02/21 08:02:46;;;;;;;34.70;19.85;;;;;;;;;;5094140;28;20114;-67
2022/02/21 08:05:12;;;;;;;31.58;20.17;;;;;;;;;;5094080;28;20032;-67
2022/02/21 08:07:39;;;;;;;33.03;20.70;;;;;;;;;;5093652;28;20032;-74
2022/02/21 08:10:06;;;;;;;31.43;20.90;;;;;;;;;;5094039;28;20123;-75
2022/02/21 08:12:32;;;;;;;34.22;20.17;;;;;;;;;;5093645;28;20040;-75
2022/02/21 08:14:58;;;;;;;35.40;21.60;;;;;;;;;;5093679;28;20106;-68
2022/02/21 08:17:26;;;;;;;35.38;22.08;;;;;;;;;;5093696;28;20032;-73
2022/02/21 08:19:52;;;;;;;39.83;23.07;;;;;;;;;;5093586;28;20124;-68
2022/02/21 08:22:18;;;;;;;36.55;24.95;;;;;;;;;;5093560;28;20490;-74
2022/02/21 08:24:44;;;;;;;45.10;23.38;;;;;;;;;;5093542;28;20039;-68
2022/02/21 08:27:10;;;;;;;39.17;23.77;;;;;;;;;;5093472;28;20119;-70
2022/02/21 08:29:37;;;;;;;34.58;23.27;;;;;;;;;;5092982;28;20048;-68
2022/02/21 08:32:03;;;;;;;36.05;24.52;;;;;;;;;;5094296;28;20096;-68
2022/02/21 08:34:30;;;;;;;33.03;23.20;;;;;;;;;;5093243;28;20053;-75
2022/02/21 08:36:56;;;;;;;32.77;21.90;;;;;;;;;;5092727;28;20059;-69
2022/02/21 08:39:22;;;;;;;32.25;21.63;;;;;;;;;;5092900;28;20123;-68
2022/02/21 08:41:48;;;;;;;42.28;22.90;;;;;;;;;;5113675;28;20050;-67
2022/02/21 08:44:14;;;;;;;40.88;23.50;;;;;;;;;;5113324;28;20028;-68
2022/02/21 08:46:40;;;;;;;36.05;21.75;;;;;;;;;;5113460;28;20080;-69
2022/02/21 08:49:07;;;;;;;37.00;23.08;;;;;;;;;;5113464;28;20559;-68
2022/02/21 08:51:33;;;;;;;36.90;21.67;;;;;;;;;;5113454;28;20040;-68
2022/02/21 08:54:00;;;;;;;32.78;21.15;;;;;;;;;;5113416;28;20426;-68
2022/02/21 08:56:26;;;;;;;33.35;21.33;;;;;;;;;;5113199;28;20460;-68
2022/02/21 08:58:52;;;;;;;28.77;19.92;;;;;;;;;;5113051;28;20040;-68
2022/02/21 09:01:18;;;;;;;32.88;19.45;;;;;;;;;;5113312;28;20032;-67
2022/02/21 09:03:44;;;;;;;27.50;17.50;;;;;;;;;;5113269;28;20067;-68
2022/02/21 09:06:11;;;;;;;25.92;16.27;;;;;;;;;;5113722;28;20476;-68
2022/02/21 09:08:37;;;;;;;25.15;15.63;;;;;;;;;;5113368;28;20155;-68
2022/02/21 09:11:03;;;;;;;26.48;14.48;;;;;;;;;;5113535;28;20471;-69
2022/02/21 09:13:29;;;;;;;24.85;12.95;;;;;;;;;;5113397;28;20460;-68
2022/02/21 09:15:55;;;;;;;25.73;13.57;;;;;;;;;;5113056;28;20077;-69
2022/02/21 09:18:21;;;;;;;21.85;13.98;;;;;;;;;;5113420;28;20031;-74
2022/02/21 09:20:47;;;;;;;24.85;12.85;;;;;;;;;;5113208;28;20540;-72
2022/02/21 09:23:14;;;;;;;31.52;13.88;;;;;;;;;;5111111;28;20057;-73
2022/02/21 09:25:40;;;;;;;26.98;13.95;;;;;;;;;;5112940;28;20038;-68
2022/02/21 09:28:06;;;;;;;26.08;14.40;;;;;;;;;;5112502;28;20036;-68
2022/02/21 09:30:32;;;;;;;26.05;15.10;;;;;;;;;;5078969;28;20422;-71
2022/02/21 09:32:58;;;;;;;23.30;14.80;;;;;;;;;;5091917;28;20476;-71
2022/02/21 09:35:25;;;;;;;23.00;14.77;;;;;;;;;;5092566;28;20503;-72
2022/02/21 09:37:51;;;;;;;26.35;14.43;;;;;;;;;;5092316;28;20036;-72
2022/02/21 09:40:19;;;;;;;23.50;15.15;;;;;;;;;;5091804;28;20052;-71
2022/02/21 09:42:46;;;;;;;25.52;15.68;;;;;;;;;;5091682;28;20032;-69
2022/02/21 09:45:12;;;;;;;22.98;14.95;;;;;;;;;;5092691;28;20387;-69
2022/02/21 09:47:38;;;;;;;25.67;16.70;;;;;;;;;;5092156;28;20074;-73
2022/02/21 09:50:06;;;;;;;33.25;16.90;;;;;;;;;;5092040;28;20058;-68
2022/02/21 09:52:33;;;;;;;31.30;17.17;;;;;;;;;;5092497;28;20036;-69
2022/02/21 09:54:59;;;;;;;29.20;17.15;;;;;;;;;;5092128;28;20423;-68
2022/02/21 09:57:25;;;;;;;29.52;18.27;;;;;;;;;;5091831;28;20028;-68
2022/02/21 09:59:51;;;;;;;33.00;17.25;;;;;;;;;;5092239;28;20556;-71
2022/02/21 10:02:23;;;;;;;31.65;16.50;;;;;;;;;;5092244;28;20036;-68
2022/02/21 10:05:08;;;;;;;25.30;15.23;;;;;;;;;;5092603;28;20470;-71
2022/02/21 10:07:36;;;;;;;27.98;15.95;;;;;;;;;;5092165;28;20449;-68
2022/02/21 10:10:03;;;;;;;29.33;16.98;;;;;;;;;;5092391;28;20055;-68
2022/02/21 10:12:30;;;;;;;29.25;15.20;;;;;;;;;;5090788;28;20036;-68
2022/02/21 10:14:57;;;;;;;30.50;15.95;;;;;;;;;;5092301;28;20036;-68
2022/02/21 10:17:24;;;;;;;28.27;16.30;;;;;;;;;;5092212;28;20032;-72
2022/02/21 10:20:02;;;;;;;27.67;15.77;;;;;;;;;;5092416;28;20032;-71
2022/02/21 10:22:32;;;;;;;26.45;16.30;;;;;;;;;;5092579;28;20035;-67
2022/02/21 10:24:58;;;;;;;32.20;18.63;;;;;;;;;;5092369;28;20058;-71
2022/02/21 10:27:29;;;;;;;27.23;17.50;;;;;;;;;;5093021;28;20028;-69
2022/02/21 10:30:04;;;;;;;34.08;18.85;;;;;;;;;;5096141;28;20051;-68
2022/02/21 10:32:34;;;;;;;37.50;23.00;;;;;;;;;;5096225;28;20036;-68
2022/02/21 10:35:12;;;;;;;34.03;21.10;;;;;;;;;;5096094;28;20028;-72
2022/02/21 10:37:58;;;;;;;36.58;21.40;;;;;;;;;;5095959;28;20086;-67
2022/02/21 10:40:38;;;;;;;37.67;22.08;;;;;;;;;;5095827;28;20412;-71
2022/02/21 10:43:11;;;;;;;35.47;21.15;;;;;;;;;;5096066;28;20036;-71
2022/02/21 10:45:38;;;;;;;41.13;24.67;;;;;;;;;;5095897;28;20142;-72
2022/02/21 10:48:08;;;;;;;43.20;24.33;;;;;;;;;;5095632;28;20498;-73
2022/02/21 10:50:36;;;;;;;43.20;25.17;;;;;;;;;;5095930;28;20040;-72
2022/02/21 10:53:09;;;;;;;47.90;29.13;;;;;;;;;;5095887;28;20043;-68
2022/02/21 10:55:36;;;;;;;49.35;29.40;;;;;;;;;;5095517;28;20389;-67
2022/02/21 10:58:17;;;;;;;50.40;28.85;;;;;;;;;;5095575;28;20388;-67
2022/02/21 11:00:44;;;;;;;46.72;28.63;;;;;;;;;;5095576;28;20157;-68
2022/02/21 11:03:10;;;;;;;49.38;30.20;;;;;;;;;;5095288;28;20525;-71
2022/02/21 11:05:37;;;;;;;46.63;28.20;;;;;;;;;;5095485;28;20032;-72
2022/02/21 11:08:03;;;;;;;51.78;32.35;;;;;;;;;;5095360;28;20032;-72
2022/02/21 11:10:29;;;;;;;46.65;28.95;;;;;;;;;;5095218;28;20038;-72
2022/02/21 11:12:56;;;;;;;44.90;30.02;;;;;;;;;;5095099;28;20024;-72
2022/02/21 11:15:23;;;;;;;47.00;30.80;;;;;;;;;;5094951;28;20071;-71
2022/02/21 11:17:49;;;;;;;48.60;29.90;;;;;;;;;;5095004;28;20411;-68
2022/02/21 11:20:16;;;;;;;57.03;32.67;;;;;;;;;;5094896;28;20032;-68
2022/02/21 11:22:42;;;;;;;53.20;32.40;;;;;;;;;;5095150;28;20090;-72
2022/02/21 11:25:15;;;;;;;53.58;34.20;;;;;;;;;;5094966;28;20039;-72
2022/02/21 11:27:59;;;;;;;56.47;31.48;;;;;;;;;;5094793;28;20021;-68
2022/02/21 11:30:26;;;;;;;48.83;30.90;;;;;;;;;;5094844;28;20036;-72
2022/02/21 11:33:03;;;;;;;47.78;29.73;;;;;;;;;;5094927;28;20476;-72
2022/02/21 11:35:29;;;;;;;55.28;32.03;;;;;;;;;;5094797;28;20127;-68
2022/02/21 11:38:01;;;;;;;50.17;31.42;;;;;;;;;;5094560;28;20373;-67
2022/02/21 11:40:27;;;;;;;47.60;29.55;;;;;;;;;;5094460;28;20059;-68
2022/02/21 11:42:53;;;;;;;46.13;28.25;;;;;;;;;;5094451;28;20158;-71
2022/02/21 11:45:23;;;;;;;47.75;27.40;;;;;;;;;;5094623;28;20047;-72
2022/02/21 11:47:52;;;;;;;43.85;28.00;;;;;;;;;;5094530;28;20055;-69
2022/02/21 11:50:19;;;;;;;44.05;27.83;;;;;;;;;;5094650;28;20373;-68
2022/02/21 11:52:48;;;;;;;42.33;26.33;;;;;;;;;;5094645;28;20031;-68
2022/02/21 11:55:30;;;;;;;45.08;25.05;;;;;;;;;;5094199;28;20465;-68
2022/02/21 11:58:16;;;;;;;44.85;24.88;;;;;;;;;;5093948;28;20496;-69
2022/02/21 12:00:46;;;;;;;43.92;23.77;;;;;;;;;;5077863;28;20074;-73
2022/02/21 12:03:15;;;;;;;38.42;22.42;;;;;;;;;;5094170;28;20028;-73
2022/02/21 12:05:44;;;;;;;36.38;20.77;;;;;;;;;;5094250;28;20040;-71
2022/02/21 12:08:20;;;;;;;34.90;20.80;;;;;;;;;;5093877;28;20032;-69
2022/02/21 12:11:02;;;;;;;36.05;20.15;;;;;;;;;;5093312;28;20124;-69
2022/02/21 12:13:48;;;;;;;30.75;17.73;;;;;;;;;;5092593;28;20125;-68
2022/02/21 12:16:15;;;;;;;22.50;14.65;;;;;;;;;;5092607;28;20043;-68
2022/02/21 12:18:42;;;;;;;27.50;14.63;;;;;;;;;;5093560;28;20477;-68
2022/02/21 12:21:18;;;;;;;30.48;14.02;;;;;;;;;;5091849;28;20082;-68
2022/02/21 12:24:04;;;;;;;23.17;12.00;;;;;;;;;;5093399;28;20054;-69
2022/02/21 12:26:35;;;;;;;25.27;11.60;;;;;;;;;;5092712;28;20065;-70
2022/02/21 12:29:28;;;;;;;25.50;13.02;;;;;;;;;;5092789;28;20500;-69
2022/02/21 12:31:57;;;;;;;21.77;12.52;;;;;;;;;;5089728;28;20036;-68
2022/02/21 12:34:24;;;;;;;18.00;9.80;;;;;;;;;;5093204;28;20035;-68
2022/02/21 12:36:51;;;;;;;19.15;8.70;;;;;;;;;;5091843;28;20111;-70
2022/02/21 12:39:23;;;;;;;16.67;8.00;;;;;;;;;;5093153;28;20052;-67
2022/02/21 12:41:50;;;;;;;13.47;7.73;;;;;;;;;;5093425;28;20040;-73
2022/02/21 12:44:16;;;;;;;18.70;8.40;;;;;;;;;;5093717;28;20807;-73
2022/02/21 12:46:43;;;;;;;16.23;7.22;;;;;;;;;;5093280;28;20060;-68
2022/02/21 12:49:24;;;;;;;15.60;6.80;;;;;;;;;;5092135;28;20480;-70
2022/02/21 12:52:10;;;;;;;21.77;6.47;;;;;;;;;;5089177;28;20032;-73
2022/02/21 12:54:56;;;;;;;12.20;5.60;;;;;;;;;;5093091;28;20043;-72
2022/02/21 12:57:23;;;;;;;14.95;6.57;;;;;;;;;;5092692;28;20032;-68
2022/02/21 12:59:50;;;;;;;11.57;5.57;;;;;;;;;;5093335;28;20036;-69
2022/02/21 13:02:17;;;;;;;15.65;6.45;;;;;;;;;;5093294;28;20495;-69
2022/02/21 13:04:43;;;;;;;16.50;5.85;;;;;;;;;;5092892;28;20081;-69
2022/02/21 13:07:10;;;;;;;15.27;6.13;;;;;;;;;;5093119;28;20066;-68
2022/02/21 13:09:37;;;;;;;12.20;5.63;;;;;;;;;;5091821;28;20052;-68
2022/02/21 13:12:05;;;;;;;18.90;6.47;;;;;;;;;;5089589;28;20059;-70
2022/02/21 13:14:35;;;;;;;16.13;6.68;;;;;;;;;;5088973;28;20214;-68
2022/02/21 13:17:01;;;;;;;13.90;6.68;;;;;;;;;;5091892;28;20115;-74
2022/02/21 13:19:31;;;;;;;14.73;6.75;;;;;;;;;;5093099;28;20060;-75
2022/02/21 13:22:05;;;;;;;16.40;6.20;;;;;;;;;;5092852;28;20064;-68
2022/02/21 13:24:32;;;;;;;14.32;5.88;;;;;;;;;;5092818;28;20032;-72
2022/02/21 13:26:59;;;;;;;20.90;5.22;;;;;;;;;;5074835;28;20434;-71
2022/02/21 13:29:26;;;;;;;17.60;5.95;;;;;;;;;;5092739;28;20146;-68
2022/02/21 13:31:53;;;;;;;15.98;5.15;;;;;;;;;;5092510;28;20461;-73
2022/02/21 13:34:19;;;;;;;11.90;4.47;;;;;;;;;;5092812;28;20471;-74
2022/02/21 13:36:45;;;;;;;12.55;4.82;;;;;;;;;;5092724;28;20571;-74
2022/02/21 13:39:21;;;;;;;10.15;3.88;;;;;;;;;;5091992;28;20051;-74
2022/02/21 13:41:48;;;;;;;11.98;3.95;;;;;;;;;;5092157;28;20036;-75
2022/02/21 13:44:24;;;;;;;12.45;4.43;;;;;;;;;;5092325;28;20051;-68
2022/02/21 13:46:51;;;;;;;10.57;4.57;;;;;;;;;;5089804;28;20076;-68
2022/02/21 13:49:17;;;;;;;12.10;5.35;;;;;;;;;;5089707;28;20587;-68
2022/02/21 13:51:43;;;;;;;12.75;5.22;;;;;;;;;;5092417;28;20436;-67
2022/02/21 13:54:27;;;;;;;12.02;4.90;;;;;;;;;;5092481;28;20495;-71
2022/02/21 13:57:09;;;;;;;10.85;3.97;;;;;;;;;;5092289;28;20040;-72
2022/02/21 13:59:48;;;;;;;13.10;4.55;;;;;;;;;;5092249;28;20055;-72
2022/02/21 14:02:28;;;;;;;11.52;4.10;;;;;;;;;;5094355;28;20078;-69
2022/02/21 14:05:08;;;;;;;11.05;4.80;;;;;;;;;;5096440;28;20044;-70
2022/02/21 14:07:34;;;;;;;15.82;5.43;;;;;;;;;;5096282;28;20089;-68
2022/02/21 14:10:07;;;;;;;11.38;5.40;;;;;;;;;;5096099;28;20459;-68
2022/02/21 14:12:33;;;;;;;14.25;4.80;;;;;;;;;;5096549;28;20058;-67
2022/02/21 14:14:59;;;;;;;8.82;4.85;;;;;;;;;;5095334;28;20036;-68
2022/02/21 14:17:25;;;;;;;10.07;5.05;;;;;;;;;;5096557;28;20060;-68
2022/02/21 14:19:52;;;;;;;13.57;5.07;;;;;;;;;;5096173;28;20070;-67
2022/02/21 14:22:18;;;;;;;12.57;5.32;;;;;;;;;;5096014;28;20388;-68